createdAt,value
2018-10-03T00:01:21.546Z,12.37
2018-10-03T00:03:50.884Z,12.37
2018-10-03T00:06:19.990Z,11.83
2018-10-03T00:08:49.062Z,11.70
2018-10-03T00:11:18.039Z,11.03
2018-10-03T00:13:46.639Z,12.40
2018-10-03T00:16:16.122Z,12.07
2018-10-03T00:18:45.380Z,12.07
2018-10-03T00:21:15.846Z,13.20
2018-10-03T00:23:45.257Z,13.37
2018-10-03T00:26:14.597Z,13.80
2018-10-03T00:28:43.676Z,13.93
2018-10-03T00:31:12.274Z,14.13
2018-10-03T00:33:41.636Z,14.43
2018-10-03T00:36:10.295Z,15.60
2018-10-03T00:38:38.884Z,15.47
2018-10-03T00:41:08.405Z,15.80
2018-10-03T00:43:37.283Z,15.27
2018-10-03T00:46:05.888Z,14.87
2018-10-03T00:48:35.748Z,14.47
2018-10-03T00:51:04.828Z,14.27
2018-10-03T00:53:36.540Z,13.37
2018-10-03T00:56:05.696Z,14.87
2018-10-03T00:58:34.690Z,13.33
2018-10-03T01:01:04.024Z,13.37
2018-10-03T01:03:32.904Z,12.33
2018-10-03T01:06:01.497Z,12.43
2018-10-03T01:08:30.134Z,12.23
2018-10-03T01:10:59.472Z,11.53
2018-10-03T01:13:28.067Z,12.47
2018-10-03T01:15:57.146Z,10.83
2018-10-03T01:18:26.048Z,11.20
2018-10-03T01:20:54.643Z,10.67
2018-10-03T01:23:23.692Z,9.97
2018-10-03T01:25:54.846Z,9.53
2018-10-03T01:28:23.578Z,9.70
2018-10-03T01:30:53.544Z,9.20
2018-10-03T01:33:23.128Z,9.73
2018-10-03T01:35:52.192Z,10.03
2018-10-03T01:38:20.809Z,10.10
2018-10-03T01:40:49.750Z,10.20
2018-10-03T01:43:18.375Z,9.33
2018-10-03T01:45:47.428Z,8.47
2018-10-03T01:48:16.313Z,9.67
2018-10-03T01:50:45.370Z,10.10
2018-10-03T01:53:14.590Z,9.83
2018-10-03T01:55:43.449Z,9.87
2018-10-03T01:58:13.180Z,9.73
2018-10-03T02:00:42.421Z,10.07
2018-10-03T02:03:11.762Z,9.67
2018-10-03T02:05:40.412Z,10.30
2018-10-03T02:08:09.490Z,9.80
2018-10-03T02:10:39.868Z,10.57
2018-10-03T02:13:08.451Z,11.50
2018-10-03T02:15:37.082Z,10.97
2018-10-03T02:18:05.728Z,10.70
2018-10-03T02:20:34.775Z,10.93
2018-10-03T02:23:03.644Z,11.07
2018-10-03T02:25:32.732Z,11.53
2018-10-03T02:28:01.787Z,12.33
2018-10-03T02:30:30.852Z,11.57
2018-10-03T02:32:59.909Z,13.00
2018-10-03T02:35:31.052Z,13.20
2018-10-03T02:37:59.640Z,12.27
2018-10-03T02:40:28.227Z,12.20
2018-10-03T02:42:57.644Z,13.07
2018-10-03T02:45:26.277Z,14.20
2018-10-03T02:47:54.878Z,13.10
2018-10-03T02:50:24.240Z,14.57
2018-10-03T02:52:53.288Z,15.40
2018-10-03T02:55:21.913Z,13.77
2018-10-03T02:57:51.679Z,13.30
2018-10-03T03:00:20.748Z,13.97
2018-10-03T03:02:49.331Z,12.23
2018-10-03T03:05:18.881Z,12.40
2018-10-03T03:07:49.827Z,11.87
2018-10-03T03:10:18.413Z,11.83
2018-10-03T03:12:47.835Z,11.93
2018-10-03T03:15:16.683Z,10.83
2018-10-03T03:17:45.280Z,11.30
2018-10-03T03:20:14.164Z,10.53
2018-10-03T03:22:42.743Z,9.83
2018-10-03T03:25:11.805Z,9.93
2018-10-03T03:27:41.276Z,10.13
2018-10-03T03:30:09.873Z,9.60
2018-10-03T03:32:38.954Z,8.13
2018-10-03T03:35:08.374Z,9.13
2018-10-03T03:37:36.999Z,7.90
2018-10-03T03:40:09.937Z,8.57
2018-10-03T03:42:38.859Z,8.53
2018-10-03T03:45:08.581Z,7.50
2018-10-03T03:47:37.171Z,8.73
2018-10-03T03:50:06.536Z,8.90
2018-10-03T03:52:35.148Z,8.17
2018-10-03T03:55:04.253Z,8.93
2018-10-03T03:57:34.136Z,7.70
2018-10-03T04:00:03.225Z,8.10
2018-10-03T04:02:32.304Z,7.80
2018-10-03T04:05:01.616Z,7.60
2018-10-03T04:07:30.723Z,7.10
2018-10-03T04:10:00.184Z,6.50
2018-10-03T04:12:29.792Z,6.17
2018-10-03T04:14:58.841Z,6.63
2018-10-03T04:17:28.838Z,5.97
2018-10-03T04:19:57.773Z,6.23
2018-10-03T04:22:29.406Z,6.70
2018-10-03T04:24:57.999Z,5.07
2018-10-03T04:27:27.327Z,6.47
2018-10-03T04:29:56.380Z,5.93
2018-10-03T04:32:25.452Z,6.57
2018-10-03T04:34:54.752Z,5.60
2018-10-03T04:37:23.848Z,4.93
2018-10-03T04:39:52.444Z,5.60
2018-10-03T04:42:21.835Z,5.60
2018-10-03T04:44:50.981Z,5.90
2018-10-03T04:47:19.556Z,5.87
2018-10-03T04:49:48.429Z,6.17
2018-10-03T04:52:17.504Z,5.73
2018-10-03T04:54:47.738Z,5.67
2018-10-03T04:57:17.103Z,5.50
2018-10-03T04:59:45.679Z,7.10
2018-10-03T05:02:14.272Z,6.03
2018-10-03T05:04:43.604Z,6.50
2018-10-03T05:07:12.203Z,6.03
2018-10-03T05:09:40.783Z,5.53
2018-10-03T05:12:10.125Z,6.60
2018-10-03T05:14:38.719Z,5.57
2018-10-03T05:17:07.863Z,6.10
2018-10-03T05:19:36.732Z,6.03
2018-10-03T05:22:06.089Z,6.23
2018-10-03T05:24:35.165Z,6.20
2018-10-03T05:27:04.041Z,6.50
2018-10-03T05:29:33.129Z,5.47
2018-10-03T05:32:02.305Z,5.37
2018-10-03T05:34:31.474Z,5.83
2018-10-03T05:37:00.729Z,5.57
2018-10-03T05:39:29.375Z,5.27
2018-10-03T05:41:58.471Z,5.47
2018-10-03T05:44:27.672Z,5.30
2018-10-03T05:46:56.811Z,4.83
2018-10-03T05:49:26.203Z,5.47
2018-10-03T05:51:55.391Z,6.20
2018-10-03T05:54:25.413Z,4.80
2018-10-03T05:56:54.762Z,5.47
2018-10-03T05:59:25.838Z,5.07
2018-10-03T06:01:55.244Z,6.47
2018-10-03T06:06:46.210Z,5.33
2018-10-03T06:09:14.946Z,6.23
2018-10-03T06:11:44.680Z,5.40
2018-10-03T06:14:13.340Z,6.30
2018-10-03T06:16:42.029Z,5.47
2018-10-03T06:19:11.332Z,5.57
2018-10-03T06:21:40.634Z,5.17
2018-10-03T06:24:09.267Z,5.63
2018-10-03T06:26:39.056Z,5.43
2018-10-03T06:29:08.425Z,5.23
2018-10-03T06:31:37.040Z,5.63
2018-10-03T06:34:06.333Z,5.53
2018-10-03T06:36:35.032Z,5.47
2018-10-03T06:39:04.878Z,4.93
2018-10-03T06:41:34.300Z,5.70
2018-10-03T06:44:03.998Z,5.23
2018-10-03T06:46:32.689Z,5.87
2018-10-03T06:49:02.161Z,5.40
2018-10-03T06:51:31.395Z,6.07
2018-10-03T06:54:00.015Z,9.50
2018-10-03T06:56:28.998Z,17.80
2018-10-03T06:58:57.841Z,7.40
2018-10-03T07:01:26.596Z,6.13
2018-10-03T07:03:56.660Z,5.63
2018-10-03T07:06:25.741Z,5.87
2018-10-03T07:08:54.504Z,6.10
2018-10-03T07:11:23.588Z,4.80
2018-10-03T07:13:52.648Z,5.37
2018-10-03T07:16:21.750Z,5.70
2018-10-03T07:18:50.484Z,5.57
2018-10-03T07:21:19.096Z,4.90
2018-10-03T07:23:47.688Z,5.87
2018-10-03T07:26:17.155Z,4.60
2018-10-03T07:28:46.152Z,4.63
2018-10-03T07:31:17.075Z,5.10
2018-10-03T07:33:46.504Z,5.13
2018-10-03T07:36:15.181Z,4.50
2018-10-03T07:38:44.682Z,5.33
2018-10-03T07:41:13.555Z,4.53
2018-10-03T07:43:42.144Z,5.83
2018-10-03T07:46:12.149Z,5.53
2018-10-03T07:48:41.049Z,6.13
2018-10-03T07:51:10.246Z,5.27
2018-10-03T07:56:10.101Z,5.23
2018-10-03T07:58:39.215Z,4.77
2018-10-03T08:01:08.790Z,5.60
2018-10-03T08:03:38.807Z,5.40
2018-10-03T08:06:08.223Z,4.80
2018-10-03T08:08:39.045Z,5.10
2018-10-03T08:11:07.971Z,5.07
2018-10-03T08:13:49.557Z,5.13
2018-10-03T08:16:18.775Z,4.77
2018-10-03T08:18:47.884Z,5.20
2018-10-03T08:21:17.002Z,5.10
2018-10-03T08:23:46.576Z,4.77
2018-10-03T08:26:15.724Z,6.00
2018-10-03T08:28:47.225Z,5.20
2018-10-03T08:31:16.570Z,5.70
2018-10-03T08:33:46.439Z,6.13
2018-10-03T08:36:16.468Z,5.80
2018-10-03T08:38:46.886Z,5.37
2018-10-03T08:41:15.982Z,5.53
2018-10-03T08:43:45.050Z,5.60
2018-10-03T08:46:14.665Z,5.23
2018-10-03T08:48:43.292Z,5.60
2018-10-03T08:51:12.431Z,5.53
2018-10-03T08:53:41.296Z,5.23
2018-10-03T08:56:10.394Z,5.67
2018-10-03T08:58:39.502Z,5.10
2018-10-03T09:01:08.542Z,4.37
2018-10-03T09:03:37.217Z,4.70
2018-10-03T09:06:07.289Z,5.47
2018-10-03T09:08:37.848Z,5.10
2018-10-03T09:11:06.483Z,4.20
2018-10-03T09:13:35.088Z,4.83
2018-10-03T09:16:03.978Z,4.27
2018-10-03T09:18:33.063Z,4.83
2018-10-03T09:21:02.288Z,4.03
2018-10-03T09:23:31.672Z,3.77
2018-10-03T09:26:00.333Z,3.73
2018-10-03T09:28:28.987Z,3.40
2018-10-03T09:30:58.056Z,4.23
2018-10-03T09:33:26.709Z,3.40
2018-10-03T09:35:55.829Z,3.80
2018-10-03T09:38:27.257Z,3.37
2018-10-03T09:40:56.304Z,4.13
2018-10-03T09:43:25.100Z,3.23
2018-10-03T09:45:54.464Z,3.70
2018-10-03T09:48:23.137Z,4.03
2018-10-03T09:50:52.424Z,4.27
2018-10-03T09:53:21.312Z,3.73
2018-10-03T09:55:49.984Z,3.70
2018-10-03T09:58:19.039Z,4.13
2018-10-03T10:00:53.567Z,4.17
2018-10-03T10:03:22.803Z,4.07
2018-10-03T10:05:51.461Z,3.57
2018-10-03T10:08:20.345Z,4.13
2018-10-03T10:10:49.742Z,4.10
2018-10-03T10:13:18.861Z,4.87
2018-10-03T10:15:48.966Z,3.90
2018-10-03T10:18:18.058Z,4.07
2018-10-03T10:20:48.520Z,4.07
2018-10-03T10:23:18.339Z,4.40
2018-10-03T10:25:47.084Z,4.13
2018-10-03T10:28:15.997Z,3.40
2018-10-03T10:30:45.546Z,4.13
2018-10-03T10:33:14.457Z,4.10
2018-10-03T10:35:43.109Z,3.73
2018-10-03T10:40:42.331Z,4.77
2018-10-03T10:43:11.614Z,3.03
2018-10-03T10:45:40.888Z,3.67
2018-10-03T10:48:09.765Z,3.57
2018-10-03T10:50:38.860Z,3.40
2018-10-03T10:53:07.765Z,4.47
2018-10-03T10:55:36.564Z,3.47
2018-10-03T10:58:24.618Z,3.40
2018-10-03T11:00:54.223Z,3.93
2018-10-03T11:03:22.885Z,3.73
2018-10-03T11:05:52.057Z,4.27
2018-10-03T11:08:21.144Z,3.70
2018-10-03T11:10:49.828Z,3.40
2018-10-03T11:13:19.998Z,3.33
2018-10-03T11:15:49.124Z,3.60
2018-10-03T11:18:18.369Z,3.60
2018-10-03T11:20:47.509Z,3.43
2018-10-03T11:23:18.668Z,3.10
2018-10-03T11:25:47.283Z,3.20
2018-10-03T11:28:16.439Z,3.40
2018-10-03T11:30:45.433Z,3.37
2018-10-03T11:33:14.059Z,3.83
2018-10-03T11:35:42.704Z,4.03
2018-10-03T11:38:11.591Z,3.10
2018-10-03T11:40:40.761Z,3.27
2018-10-03T11:43:09.816Z,4.37
2018-10-03T11:45:43.909Z,3.70
2018-10-03T11:48:13.431Z,3.67
2018-10-03T11:50:44.189Z,4.03
2018-10-03T11:53:14.595Z,5.43
2018-10-03T11:55:44.738Z,5.63
2018-10-03T11:58:13.491Z,3.47
2018-10-03T12:00:42.816Z,3.47
2018-10-03T12:03:11.441Z,3.60
2018-10-03T12:05:40.081Z,4.30
2018-10-03T12:08:09.517Z,4.13
2018-10-03T12:10:38.139Z,4.77
2018-10-03T12:13:07.111Z,4.10
2018-10-03T12:15:37.119Z,3.80
2018-10-03T12:18:06.977Z,3.67
2018-10-03T12:20:35.747Z,3.20
2018-10-03T12:23:04.852Z,3.70
2018-10-03T12:25:33.491Z,3.50
2018-10-03T12:28:02.125Z,4.63
2018-10-03T12:30:31.229Z,2.90
2018-10-03T12:33:00.500Z,3.47
2018-10-03T12:35:33.054Z,3.97
2018-10-03T12:38:02.881Z,3.50
2018-10-03T12:40:32.118Z,3.33
2018-10-03T12:43:01.120Z,3.30
2018-10-03T12:48:09.036Z,3.80
2018-10-03T12:50:37.694Z,3.00
2018-10-03T12:53:07.429Z,3.57
2018-10-03T12:55:36.970Z,3.03
2018-10-03T12:58:05.720Z,3.43
2018-10-03T13:00:35.069Z,3.47
2018-10-03T13:03:04.076Z,3.73
2018-10-03T13:05:33.672Z,3.73
2018-10-03T13:08:04.238Z,3.80
2018-10-03T13:10:33.898Z,4.07
2018-10-03T13:13:02.650Z,4.13
2018-10-03T13:15:32.801Z,4.90
2018-10-03T13:18:01.526Z,3.80
2018-10-03T13:20:33.189Z,2.90
2018-10-03T13:23:02.531Z,3.23
2018-10-03T13:25:33.984Z,4.20
2018-10-03T13:28:02.620Z,3.10
2018-10-03T13:30:32.071Z,3.30
2018-10-03T13:33:01.201Z,3.73
2018-10-03T13:35:29.816Z,4.50
2018-10-03T13:37:59.395Z,3.83
2018-10-03T13:40:28.600Z,3.43
2018-10-03T13:42:58.001Z,4.03
2018-10-03T13:45:26.895Z,2.67
2018-10-03T13:47:56.129Z,3.20
2018-10-03T13:50:25.210Z,3.57
2018-10-03T13:52:54.565Z,4.23
2018-10-03T13:55:23.671Z,4.37
2018-10-03T13:57:56.525Z,3.30
2018-10-03T14:00:26.795Z,4.03
2018-10-03T14:02:57.388Z,4.10
2018-10-03T14:05:26.461Z,3.30
2018-10-03T14:07:55.932Z,3.87
2018-10-03T14:10:25.920Z,4.40
2018-10-03T14:12:55.360Z,3.67
2018-10-03T14:15:24.423Z,3.57
2018-10-03T14:17:53.388Z,3.90
2018-10-03T14:20:21.988Z,4.20
2018-10-03T14:22:51.486Z,3.47
2018-10-03T14:25:20.733Z,3.40
2018-10-03T14:27:49.815Z,4.63
2018-10-03T14:30:18.854Z,4.57
2018-10-03T14:32:48.008Z,3.87
2018-10-03T14:35:17.601Z,3.87
2018-10-03T14:37:46.962Z,4.10
2018-10-03T14:40:20.204Z,4.07
2018-10-03T14:42:49.288Z,3.50
2018-10-03T14:45:19.728Z,3.73
2018-10-03T14:47:48.425Z,3.90
2018-10-03T14:50:17.028Z,3.57
2018-10-03T14:52:46.836Z,3.63
2018-10-03T14:55:15.946Z,3.50
2018-10-03T14:57:44.564Z,4.03
2018-10-03T15:00:14.193Z,4.37
2018-10-03T15:02:42.851Z,3.70
2018-10-03T15:05:11.488Z,3.00
2018-10-03T15:07:42.143Z,3.20
2018-10-03T15:10:10.737Z,3.57
2018-10-03T15:12:40.034Z,3.30
2018-10-03T15:15:09.219Z,4.30
2018-10-03T15:17:38.430Z,3.40
2018-10-03T15:20:11.973Z,3.30
2018-10-03T15:22:42.096Z,3.63
2018-10-03T15:25:10.767Z,3.60
2018-10-03T15:27:41.620Z,3.53
2018-10-03T15:30:10.640Z,3.37
2018-10-03T15:32:39.296Z,3.90
2018-10-03T15:35:08.460Z,3.70
2018-10-03T15:37:38.412Z,3.33
2018-10-03T15:40:07.078Z,3.27
2018-10-03T15:42:36.853Z,3.10
2018-10-03T15:45:06.311Z,3.80
2018-10-03T15:47:35.288Z,3.60
2018-10-03T15:50:03.977Z,4.00
2018-10-03T15:52:32.921Z,4.03
2018-10-03T15:55:01.605Z,3.10
2018-10-03T15:57:31.112Z,3.40
2018-10-03T16:00:01.991Z,3.50
2018-10-03T16:02:31.481Z,3.83
2018-10-03T16:05:01.873Z,4.20
2018-10-03T16:07:31.581Z,3.83
2018-10-03T16:10:00.896Z,3.43
2018-10-03T16:12:29.476Z,3.37
2018-10-03T16:14:58.522Z,3.70
2018-10-03T16:17:27.135Z,3.73
2018-10-03T16:19:55.929Z,3.90
2018-10-03T16:22:25.390Z,4.30
2018-10-03T16:24:54.046Z,4.10
2018-10-03T16:27:25.017Z,3.73
2018-10-03T16:29:54.377Z,3.87
2018-10-03T16:32:22.978Z,3.53
2018-10-03T16:34:51.868Z,4.13
2018-10-03T16:37:22.190Z,4.37
2018-10-03T16:42:21.672Z,4.70
2018-10-03T16:44:51.128Z,3.93
2018-10-03T16:47:19.780Z,4.80
2018-10-03T16:49:48.965Z,3.80
2018-10-03T16:52:18.430Z,4.53
2018-10-03T16:54:47.184Z,4.20
2018-10-03T16:57:16.364Z,3.33
2018-10-03T16:59:45.793Z,4.40
2018-10-03T17:02:14.454Z,4.10
2018-10-03T17:04:44.518Z,3.47
2018-10-03T17:07:13.449Z,3.97
2018-10-03T17:09:42.242Z,4.40
2018-10-03T17:12:12.081Z,6.77
2018-10-03T17:14:41.463Z,5.40
2018-10-03T17:17:11.045Z,4.83
2018-10-03T17:19:40.044Z,5.07
2018-10-03T17:24:31.356Z,3.33
2018-10-03T17:27:01.141Z,4.13
2018-10-03T17:29:30.444Z,3.53
2018-10-03T17:31:59.429Z,4.80
2018-10-03T17:34:28.773Z,4.37
2018-10-03T17:36:59.876Z,4.13
2018-10-03T17:39:28.841Z,5.27
2018-10-03T17:41:58.922Z,6.17
2018-10-03T17:44:28.234Z,8.10
2018-10-03T17:46:57.688Z,6.57
2018-10-03T17:49:28.188Z,6.63
2018-10-03T17:51:57.103Z,6.00
2018-10-03T17:54:29.800Z,4.67
2018-10-03T17:56:58.687Z,4.50
2018-10-03T17:59:27.947Z,5.03
2018-10-03T18:02:01.121Z,4.40
2018-10-03T18:04:30.349Z,4.03
2018-10-03T18:07:00.269Z,5.90
2018-10-03T18:09:28.912Z,3.90
2018-10-03T18:11:57.558Z,3.77
2018-10-03T18:14:26.942Z,3.37
2018-10-03T18:16:56.494Z,4.00
2018-10-03T18:19:25.787Z,3.70
2018-10-03T18:21:55.741Z,5.17
2018-10-03T18:24:26.405Z,4.23
2018-10-03T18:26:56.568Z,3.80
2018-10-03T18:29:26.195Z,4.53
2018-10-03T18:31:54.800Z,3.73
2018-10-03T18:34:23.445Z,4.47
2018-10-03T18:36:52.756Z,4.60
2018-10-03T18:39:21.834Z,3.97
2018-10-03T18:41:50.450Z,4.60
2018-10-03T18:44:19.313Z,4.67
2018-10-03T18:46:48.393Z,4.70
2018-10-03T18:49:17.112Z,5.47
2018-10-03T18:51:46.035Z,4.53
2018-10-03T18:54:14.603Z,4.57
2018-10-03T18:56:43.954Z,4.70
2018-10-03T18:59:12.996Z,5.13
2018-10-03T19:01:41.576Z,4.80
2018-10-03T19:04:10.203Z,5.00
2018-10-03T19:06:39.525Z,5.97
2018-10-03T19:09:08.814Z,6.40
2018-10-03T19:11:37.967Z,6.37
2018-10-03T19:14:07.300Z,6.37
2018-10-03T19:16:36.442Z,6.43
2018-10-03T19:19:05.374Z,6.93
2018-10-03T19:21:35.076Z,6.27
2018-10-03T19:24:04.261Z,5.80
2018-10-03T19:26:33.339Z,6.40
2018-10-03T19:29:04.827Z,11.33
2018-10-03T19:31:34.716Z,8.20
2018-10-03T19:34:04.630Z,7.70
2018-10-03T19:36:33.769Z,6.80
2018-10-03T19:39:02.982Z,6.43
2018-10-03T19:41:31.604Z,7.07
2018-10-03T19:44:01.048Z,7.07
2018-10-03T19:46:30.758Z,6.60
2018-10-03T19:48:59.919Z,6.97
2018-10-03T19:51:29.330Z,7.03
2018-10-03T19:53:58.433Z,6.40
2018-10-03T19:56:28.274Z,7.77
2018-10-03T19:58:57.670Z,5.93
2018-10-03T20:01:27.037Z,6.97
2018-10-03T20:03:55.698Z,6.73
2018-10-03T20:06:27.145Z,7.10
2018-10-03T20:08:56.271Z,7.50
2018-10-03T20:11:29.131Z,7.50
2018-10-03T20:13:58.869Z,8.50
2018-10-03T20:16:27.669Z,7.93
2018-10-03T20:18:56.527Z,8.00
2018-10-03T20:21:25.964Z,7.00
2018-10-03T20:23:55.050Z,7.30
2018-10-03T20:26:24.141Z,8.00
2018-10-03T20:28:54.569Z,7.53
2018-10-03T20:31:23.768Z,7.13
2018-10-03T20:33:52.367Z,7.40
2018-10-03T20:36:21.872Z,7.93
2018-10-03T20:38:50.511Z,7.73
2018-10-03T20:41:19.628Z,7.43
2018-10-03T20:43:50.765Z,8.20
2018-10-03T20:46:19.861Z,7.47
2018-10-03T20:48:53.323Z,8.03
2018-10-03T20:51:22.198Z,7.10
2018-10-03T20:53:53.374Z,7.83
2018-10-03T20:56:21.989Z,6.97
2018-10-03T20:58:51.624Z,8.90
2018-10-03T21:01:20.745Z,7.70
2018-10-03T21:03:49.367Z,7.83
2018-10-03T21:06:18.320Z,8.77
2018-10-03T21:08:48.368Z,8.23
2018-10-03T21:11:17.900Z,7.43
2018-10-03T21:13:46.788Z,7.77
2018-10-03T21:16:15.925Z,7.97
2018-10-03T21:18:44.990Z,7.73
2018-10-03T21:21:14.369Z,8.83
2018-10-03T21:23:43.001Z,9.57
2018-10-03T21:26:13.625Z,8.97
2018-10-03T21:28:53.422Z,9.10
2018-10-03T21:31:23.359Z,9.47
2018-10-03T21:33:52.459Z,9.50
2018-10-03T21:36:21.330Z,9.30
2018-10-03T21:38:49.983Z,10.67
2018-10-03T21:41:21.497Z,10.80
2018-10-03T21:43:50.462Z,10.17
2018-10-03T21:46:20.208Z,10.63
2018-10-03T21:48:49.368Z,11.30
2018-10-03T21:51:18.765Z,11.17
2018-10-03T21:53:47.857Z,10.97
2018-10-03T21:56:16.551Z,14.00
2018-10-03T21:58:45.484Z,10.27
2018-10-03T22:01:14.097Z,12.50
2018-10-03T22:03:42.762Z,11.77
2018-10-03T22:06:11.638Z,13.17
2018-10-03T22:08:40.731Z,11.83
2018-10-03T22:11:09.854Z,10.57
2018-10-03T22:13:39.718Z,13.77
2018-10-03T22:16:08.329Z,11.73
2018-10-03T22:18:41.325Z,11.43
2018-10-03T22:21:11.040Z,9.93
2018-10-03T22:23:45.046Z,9.60
2018-10-03T22:26:14.148Z,8.23
2018-10-03T22:28:47.454Z,9.50
2018-10-03T22:31:16.529Z,8.30
2018-10-03T22:33:50.433Z,8.90
2018-10-03T22:36:19.360Z,9.13
2018-10-03T22:38:53.315Z,8.60
2018-10-03T22:41:22.445Z,10.33
2018-10-03T22:43:55.524Z,9.70
2018-10-03T22:46:24.576Z,12.03
2018-10-03T22:48:53.217Z,11.13
2018-10-03T22:51:22.140Z,9.17
2018-10-03T22:53:51.196Z,9.43
2018-10-03T22:56:19.797Z,9.20
2018-10-03T22:58:49.115Z,8.63
2018-10-03T23:01:17.769Z,8.53
2018-10-03T23:03:46.360Z,9.47
2018-10-03T23:06:15.315Z,9.70
2018-10-03T23:08:43.923Z,9.20
2018-10-03T23:11:12.569Z,9.60
2018-10-03T23:13:42.893Z,9.10
2018-10-03T23:16:13.781Z,9.30
2018-10-03T23:18:42.410Z,10.93
2018-10-03T23:21:14.400Z,11.57
2018-10-03T23:23:43.537Z,9.70
2018-10-03T23:26:12.150Z,11.83
2018-10-03T23:28:42.133Z,10.07
2018-10-03T23:31:11.185Z,10.07
2018-10-03T23:33:39.821Z,9.73
2018-10-03T23:36:08.775Z,10.37
2018-10-03T23:38:37.922Z,10.23
2018-10-03T23:41:07.155Z,11.30
2018-10-03T23:43:36.504Z,9.23
2018-10-03T23:46:05.588Z,9.57
2018-10-03T23:48:34.712Z,10.63
2018-10-03T23:51:03.656Z,17.90
2018-10-03T23:53:34.841Z,10.23
2018-10-03T23:56:03.459Z,8.83
2018-10-03T23:58:35.740Z,8.63
